createdAt,value
2016-08-22T00:00:34.492Z,976.16
2016-08-22T00:01:34.458Z,976.11
2016-08-22T00:02:34.424Z,976.13
2016-08-22T00:03:34.392Z,976.14
2016-08-22T00:04:34.359Z,976.14
2016-08-22T00:05:34.326Z,976.15
2016-08-22T00:06:34.292Z,976.16
2016-08-22T00:07:34.262Z,976.16
2016-08-22T00:08:34.226Z,976.14
2016-08-22T00:09:34.193Z,976.15
2016-08-22T00:10:34.160Z,976.14
2016-08-22T00:11:34.128Z,976.17
2016-08-22T00:12:34.098Z,976.13
2016-08-22T00:13:34.059Z,976.15
2016-08-22T00:14:34.036Z,976.16
2016-08-22T00:15:33.993Z,976.2
2016-08-22T00:16:33.961Z,976.18
2016-08-22T00:17:33.927Z,976.15
2016-08-22T00:18:33.895Z,976.17
2016-08-22T00:19:33.860Z,976.12
2016-08-22T00:20:33.828Z,976.18
2016-08-22T00:21:33.794Z,976.17
2016-08-22T00:22:33.761Z,976.15
2016-08-22T00:23:33.729Z,976.2
2016-08-22T00:24:33.696Z,976.21
2016-08-22T00:25:33.661Z,976.21
2016-08-22T00:26:33.629Z,976.23
2016-08-22T00:27:33.594Z,976.21
2016-08-22T00:28:33.562Z,976.21
2016-08-22T00:29:33.528Z,976.2
2016-08-22T00:30:33.500Z,976.22
2016-08-22T00:31:33.462Z,976.24
2016-08-22T00:32:33.429Z,976.21
2016-08-22T00:33:33.397Z,976.26
2016-08-22T00:34:33.362Z,976.23
2016-08-22T00:35:33.329Z,976.22
2016-08-22T00:36:33.296Z,976.24
2016-08-22T00:37:33.263Z,976.24
2016-08-22T00:38:33.232Z,976.24
2016-08-22T00:39:33.197Z,976.24
2016-08-22T00:40:33.164Z,976.23
2016-08-22T00:41:33.132Z,976.23
2016-08-22T00:42:33.098Z,976.24
2016-08-22T00:43:33.066Z,976.24
2016-08-22T00:44:33.033Z,976.25
2016-08-22T00:45:32.999Z,976.27
2016-08-22T00:46:32.966Z,976.29
2016-08-22T00:47:32.932Z,976.27
2016-08-22T00:48:32.900Z,976.26
2016-08-22T00:49:32.867Z,976.29
2016-08-22T00:50:32.833Z,976.32
2016-08-22T00:51:32.802Z,976.32
2016-08-22T00:52:32.766Z,976.35
2016-08-22T00:53:32.733Z,976.34
2016-08-22T00:54:32.700Z,976.36
2016-08-22T00:55:32.667Z,976.35
2016-08-22T00:56:32.633Z,976.36
2016-08-22T00:57:32.601Z,976.35
2016-08-22T00:58:32.568Z,976.32
2016-08-22T00:59:32.533Z,976.33
2016-08-22T01:00:32.501Z,976.33
2016-08-22T01:01:32.472Z,976.28
2016-08-22T01:02:32.439Z,976.35
2016-08-22T01:03:32.404Z,976.32
2016-08-22T01:04:32.370Z,976.37
2016-08-22T01:05:32.335Z,976.39
2016-08-22T01:06:32.303Z,976.37
2016-08-22T01:07:32.270Z,976.37
2016-08-22T01:08:32.236Z,976.38
2016-08-22T01:09:32.206Z,976.39
2016-08-22T01:10:32.172Z,976.36
2016-08-22T01:11:32.137Z,976.43
2016-08-22T01:12:32.107Z,976.38
2016-08-22T01:13:32.074Z,976.4
2016-08-22T01:14:32.040Z,976.4
2016-08-22T01:15:32.005Z,976.38
2016-08-22T01:16:31.972Z,976.4
2016-08-22T01:17:31.941Z,976.4
2016-08-22T01:18:31.905Z,976.42
2016-08-22T01:19:31.873Z,976.4
2016-08-22T01:20:31.840Z,976.41
2016-08-22T01:21:31.812Z,976.38
2016-08-22T01:22:31.773Z,976.43
2016-08-22T01:23:31.741Z,976.38
2016-08-22T01:24:31.707Z,976.4
2016-08-22T01:25:31.674Z,976.4
2016-08-22T01:26:31.641Z,976.42
2016-08-22T01:27:31.609Z,976.44
2016-08-22T01:28:31.578Z,976.4
2016-08-22T01:29:31.542Z,976.4
2016-08-22T01:30:31.509Z,976.4
2016-08-22T01:31:31.476Z,976.39
2016-08-22T01:32:31.441Z,976.44
2016-08-22T01:33:31.409Z,976.44
2016-08-22T01:34:31.376Z,976.36
2016-08-22T01:35:31.343Z,976.39
2016-08-22T01:36:31.307Z,976.42
2016-08-22T01:37:31.275Z,976.41
2016-08-22T01:38:31.243Z,976.39
2016-08-22T01:39:31.208Z,976.37
2016-08-22T01:40:31.177Z,976.38
2016-08-22T01:41:31.143Z,976.38
2016-08-22T01:42:31.110Z,976.34
2016-08-22T01:43:31.089Z,976.4
2016-08-22T01:44:31.044Z,976.41
2016-08-22T01:45:31.011Z,976.35
2016-08-22T01:46:30.979Z,976.39
2016-08-22T01:47:30.942Z,976.42
2016-08-22T01:48:30.913Z,976.4
2016-08-22T01:49:30.877Z,976.4
2016-08-22T01:50:30.843Z,976.39
2016-08-22T01:51:30.810Z,976.42
2016-08-22T01:52:30.779Z,976.38
2016-08-22T01:53:30.743Z,976.38
2016-08-22T01:54:30.710Z,976.37
2016-08-22T01:55:30.681Z,976.38
2016-08-22T01:56:30.644Z,976.36
2016-08-22T01:57:30.611Z,976.35
2016-08-22T01:58:30.577Z,976.37
2016-08-22T01:59:30.545Z,976.38
2016-08-22T02:00:30.512Z,976.39
2016-08-22T02:01:30.476Z,976.36
2016-08-22T02:02:30.442Z,976.39
2016-08-22T02:03:30.409Z,976.39
2016-08-22T02:04:30.379Z,976.37
2016-08-22T02:05:30.345Z,976.42
2016-08-22T02:06:30.310Z,976.41
2016-08-22T02:07:30.277Z,976.37
2016-08-22T02:08:30.246Z,976.4
2016-08-22T02:09:30.216Z,976.38
2016-08-22T02:10:30.177Z,976.35
2016-08-22T02:11:30.144Z,976.34
2016-08-22T02:12:30.109Z,976.34
2016-08-22T02:13:30.078Z,976.33
2016-08-22T02:14:30.044Z,976.35
2016-08-22T02:15:30.008Z,976.35
2016-08-22T02:16:29.977Z,976.37
2016-08-22T02:17:29.944Z,976.33
2016-08-22T02:18:29.908Z,976.37
2016-08-22T02:19:29.878Z,976.36
2016-08-22T02:20:29.844Z,976.36
2016-08-22T02:21:29.811Z,976.37
2016-08-22T02:22:29.776Z,976.38
2016-08-22T02:23:29.743Z,976.37
2016-08-22T02:24:29.709Z,976.36
2016-08-22T02:25:29.675Z,976.35
2016-08-22T02:26:29.643Z,976.33
2016-08-22T02:27:29.609Z,976.37
2016-08-22T02:28:29.576Z,976.31
2016-08-22T02:29:29.547Z,976.38
2016-08-22T02:30:29.510Z,976.35
2016-08-22T02:31:29.477Z,976.32
2016-08-22T02:32:29.441Z,976.34
2016-08-22T02:33:29.408Z,976.29
2016-08-22T02:34:29.375Z,976.27
2016-08-22T02:35:29.340Z,976.26
2016-08-22T02:36:29.311Z,976.25
2016-08-22T02:37:29.276Z,976.24
2016-08-22T02:38:29.240Z,976.23
2016-08-22T02:39:29.210Z,976.27
2016-08-22T02:40:29.176Z,976.22
2016-08-22T02:41:29.141Z,976.28
2016-08-22T02:42:29.109Z,976.27
2016-08-22T02:43:29.076Z,976.3
2016-08-22T02:44:29.040Z,976.3
2016-08-22T02:45:29.007Z,976.32
2016-08-22T02:46:28.975Z,976.31
2016-08-22T02:47:28.939Z,976.3
2016-08-22T02:48:28.907Z,976.35
2016-08-22T02:49:28.871Z,976.32
2016-08-22T02:50:28.839Z,976.3
2016-08-22T02:51:28.808Z,976.33
2016-08-22T02:52:28.773Z,976.35
2016-08-22T02:53:28.739Z,976.36
2016-08-22T02:54:28.705Z,976.34
2016-08-22T02:55:28.675Z,976.32
2016-08-22T02:56:28.640Z,976.34
2016-08-22T02:57:28.607Z,976.35
2016-08-22T02:58:28.571Z,976.37
2016-08-22T02:59:28.540Z,976.4
2016-08-22T03:00:28.505Z,976.4
2016-08-22T03:01:28.473Z,976.46
2016-08-22T03:02:28.438Z,976.45
2016-08-22T03:03:28.403Z,976.48
2016-08-22T03:04:28.369Z,976.45
2016-08-22T03:05:28.340Z,976.48
2016-08-22T03:06:28.307Z,976.47
2016-08-22T03:07:28.270Z,976.45
2016-08-22T03:08:28.236Z,976.43
2016-08-22T03:09:28.204Z,976.45
2016-08-22T03:10:28.169Z,976.44
2016-08-22T03:11:28.137Z,976.48
2016-08-22T03:12:28.101Z,976.44
2016-08-22T03:13:28.067Z,976.44
2016-08-22T03:14:28.034Z,976.39
2016-08-22T03:15:28.000Z,976.4
2016-08-22T03:16:27.969Z,976.39
2016-08-22T03:17:27.935Z,976.46
2016-08-22T03:18:27.901Z,976.41
2016-08-22T03:19:27.867Z,976.42
2016-08-22T03:20:27.834Z,976.41
2016-08-22T03:21:27.803Z,976.42
2016-08-22T03:22:27.766Z,976.42
2016-08-22T03:23:27.730Z,976.48
2016-08-22T03:24:27.702Z,976.45
2016-08-22T03:25:27.663Z,976.47
2016-08-22T03:26:27.632Z,976.44
2016-08-22T03:27:27.596Z,976.47
2016-08-22T03:28:27.564Z,976.48
2016-08-22T03:29:27.529Z,976.48
2016-08-22T03:30:27.497Z,976.48
2016-08-22T03:31:27.462Z,976.45
2016-08-22T03:32:27.431Z,976.45
2016-08-22T03:33:27.394Z,976.44
2016-08-22T03:34:27.361Z,976.48
2016-08-22T03:35:27.328Z,976.51
2016-08-22T03:36:27.296Z,976.5
2016-08-22T03:37:27.259Z,976.46
2016-08-22T03:38:27.226Z,976.48
2016-08-22T03:39:27.193Z,976.5
2016-08-22T03:40:27.158Z,976.54
2016-08-22T03:41:27.126Z,976.52
2016-08-22T03:42:27.092Z,976.56
2016-08-22T03:43:27.059Z,976.6
2016-08-22T03:44:27.023Z,976.59
2016-08-22T03:45:26.990Z,976.61
2016-08-22T03:46:26.957Z,976.57
2016-08-22T03:47:26.922Z,976.6
2016-08-22T03:48:26.904Z,976.58
2016-08-22T03:49:26.855Z,976.58
2016-08-22T03:50:26.823Z,976.64
2016-08-22T03:51:26.786Z,976.62
2016-08-22T03:52:26.755Z,976.68
2016-08-22T03:53:26.720Z,976.7
2016-08-22T03:54:26.689Z,976.67
2016-08-22T03:55:26.654Z,976.7
2016-08-22T03:56:26.629Z,976.66
2016-08-22T03:57:26.585Z,976.63
2016-08-22T03:58:26.551Z,976.63
2016-08-22T03:59:26.516Z,976.66
2016-08-22T04:00:26.482Z,976.64
2016-08-22T04:01:26.448Z,976.64
2016-08-22T04:02:26.416Z,976.62
2016-08-22T04:03:26.380Z,976.65
2016-08-22T04:04:26.349Z,976.64
2016-08-22T04:05:26.314Z,976.67
2016-08-22T04:06:26.278Z,976.71
2016-08-22T04:07:26.246Z,976.7
2016-08-22T04:08:26.212Z,976.74
2016-08-22T04:09:26.179Z,976.77
2016-08-22T04:10:26.145Z,976.8
2016-08-22T04:11:26.113Z,976.79
2016-08-22T04:12:26.076Z,976.81
2016-08-22T04:13:26.043Z,976.77
2016-08-22T04:14:26.008Z,976.79
2016-08-22T04:15:25.974Z,976.81
2016-08-22T04:16:25.940Z,976.78
2016-08-22T04:17:25.907Z,976.8
2016-08-22T04:18:25.873Z,976.79
2016-08-22T04:19:25.853Z,976.83
2016-08-22T04:20:25.805Z,976.81
2016-08-22T04:21:25.769Z,976.83
2016-08-22T04:22:25.737Z,976.81
2016-08-22T04:23:25.702Z,976.84
2016-08-22T04:24:25.670Z,976.79
2016-08-22T04:25:25.634Z,976.85
2016-08-22T04:26:25.600Z,976.8
2016-08-22T04:27:25.566Z,976.87
2016-08-22T04:28:25.533Z,976.88
2016-08-22T04:29:25.502Z,976.93
2016-08-22T04:30:25.470Z,976.94
2016-08-22T04:31:25.431Z,976.95
2016-08-22T04:32:25.402Z,976.91
2016-08-22T04:33:25.366Z,976.89
2016-08-22T04:34:25.331Z,976.89
2016-08-22T04:35:25.296Z,976.9
2016-08-22T04:36:25.263Z,976.93
2016-08-22T04:37:25.228Z,976.91
2016-08-22T04:38:25.192Z,976.88
2016-08-22T04:39:25.161Z,976.92
2016-08-22T04:40:25.127Z,976.97
2016-08-22T04:41:25.093Z,977.01
2016-08-22T04:42:25.059Z,976.96
2016-08-22T04:43:25.025Z,976.99
2016-08-22T04:44:24.991Z,977.01
2016-08-22T04:45:24.958Z,976.97
2016-08-22T04:46:24.922Z,976.94
2016-08-22T04:47:24.890Z,976.95
2016-08-22T04:48:24.856Z,976.99
2016-08-22T04:49:24.823Z,977
2016-08-22T04:50:24.789Z,977.02
2016-08-22T04:51:24.755Z,977.07
2016-08-22T04:52:24.721Z,977.04
2016-08-22T04:53:24.686Z,977.09
2016-08-22T04:54:24.654Z,977.07
2016-08-22T04:55:24.620Z,977.13
2016-08-22T04:56:24.588Z,977.15
2016-08-22T04:57:24.550Z,977.15
2016-08-22T04:58:24.520Z,977.14
2016-08-22T04:59:24.485Z,977.17
2016-08-22T05:00:24.453Z,977.18
2016-08-22T05:01:24.419Z,977.23
2016-08-22T05:02:24.385Z,977.23
2016-08-22T05:03:24.352Z,977.23
2016-08-22T05:04:24.319Z,977.21
2016-08-22T05:05:24.286Z,977.25
2016-08-22T05:06:24.251Z,977.2
2016-08-22T05:07:24.219Z,977.17
2016-08-22T05:08:24.186Z,977.19
2016-08-22T05:09:24.153Z,977.16
2016-08-22T05:10:24.120Z,977.15
2016-08-22T05:11:24.087Z,977.19
2016-08-22T05:12:24.052Z,977.19
2016-08-22T05:13:24.020Z,977.22
2016-08-22T05:14:23.988Z,977.28
2016-08-22T05:15:23.955Z,977.2
2016-08-22T05:16:23.923Z,977.27
2016-08-22T05:17:23.892Z,977.21
2016-08-22T05:18:23.857Z,977.25
2016-08-22T05:19:23.826Z,977.28
2016-08-22T05:20:23.798Z,977.28
2016-08-22T05:21:23.763Z,977.31
2016-08-22T05:22:23.729Z,977.3
2016-08-22T05:23:23.699Z,977.32
2016-08-22T05:24:23.668Z,977.37
2016-08-22T05:25:23.637Z,977.41
2016-08-22T05:26:23.608Z,977.39
2016-08-22T05:27:23.576Z,977.4
2016-08-22T05:28:23.546Z,977.38
2016-08-22T05:29:23.530Z,977.41
2016-08-22T05:30:23.487Z,977.37
2016-08-22T05:31:23.457Z,977.39
2016-08-22T05:32:23.426Z,977.4
2016-08-22T05:33:23.396Z,977.35
2016-08-22T05:34:23.370Z,977.4
2016-08-22T05:35:23.340Z,977.45
2016-08-22T05:36:23.312Z,977.41
2016-08-22T05:37:23.283Z,977.46
2016-08-22T05:38:23.255Z,977.48
2016-08-22T05:39:23.227Z,977.5
2016-08-22T05:40:23.201Z,977.52
2016-08-22T05:41:23.171Z,977.54
2016-08-22T05:42:23.143Z,977.57
2016-08-22T05:43:23.120Z,977.54
2016-08-22T05:44:23.089Z,977.56
2016-08-22T05:45:23.062Z,977.6
2016-08-22T05:46:23.035Z,977.64
2016-08-22T05:47:23.011Z,977.7
2016-08-22T05:48:22.983Z,977.73
2016-08-22T05:49:22.957Z,977.73
2016-08-22T05:50:22.932Z,977.8
2016-08-22T05:51:22.906Z,977.77
2016-08-22T05:52:22.878Z,977.74
2016-08-22T05:53:22.853Z,977.82
2016-08-22T05:54:22.832Z,977.87
2016-08-22T05:55:22.802Z,977.89
2016-08-22T05:56:22.776Z,977.88
2016-08-22T05:57:22.752Z,977.94
2016-08-22T05:58:22.726Z,977.89
2016-08-22T05:59:22.701Z,977.92
2016-08-22T06:00:22.682Z,977.91
2016-08-22T06:01:22.654Z,977.95
2016-08-22T06:02:22.630Z,977.99
2016-08-22T06:03:22.605Z,977.96
2016-08-22T06:04:22.582Z,978
2016-08-22T06:05:22.557Z,977.93
2016-08-22T06:06:22.535Z,977.94
2016-08-22T06:07:22.511Z,977.98
2016-08-22T06:08:22.488Z,978.03
2016-08-22T06:09:22.464Z,977.95
2016-08-22T06:10:22.439Z,977.99
2016-08-22T06:11:22.417Z,978.03
2016-08-22T06:12:22.397Z,978.01
2016-08-22T06:13:22.372Z,978.01
2016-08-22T06:14:22.351Z,977.99
2016-08-22T06:15:22.330Z,978.05
2016-08-22T06:16:22.307Z,978.03
2016-08-22T06:17:22.285Z,978.02
2016-08-22T06:18:22.264Z,978.02
2016-08-22T06:19:22.242Z,977.97
2016-08-22T06:20:22.221Z,977.91
2016-08-22T06:21:22.201Z,977.95
2016-08-22T06:22:22.177Z,977.92
2016-08-22T06:23:22.156Z,977.93
2016-08-22T06:24:22.135Z,977.95
2016-08-22T06:25:22.114Z,977.92
2016-08-22T06:26:22.091Z,977.89
2016-08-22T06:27:22.070Z,977.97
2016-08-22T06:28:22.048Z,977.92
2016-08-22T06:29:22.026Z,977.94
2016-08-22T06:30:22.004Z,977.96
2016-08-22T06:31:21.984Z,977.94
2016-08-22T06:32:21.957Z,977.94
2016-08-22T06:33:21.939Z,978.01
2016-08-22T06:34:21.913Z,978
2016-08-22T06:35:21.889Z,977.99
2016-08-22T06:36:21.866Z,977.97
2016-08-22T06:37:21.843Z,978.01
2016-08-22T06:38:21.821Z,978.04
2016-08-22T06:39:21.798Z,978.06
2016-08-22T06:40:21.775Z,978.11
2016-08-22T06:41:21.750Z,978.1
2016-08-22T06:42:21.728Z,978.18
2016-08-22T06:43:21.707Z,978.13
2016-08-22T06:44:21.683Z,978.18
2016-08-22T06:45:21.663Z,978.17
2016-08-22T06:46:21.634Z,978.13
2016-08-22T06:47:21.611Z,978.1
2016-08-22T06:48:21.591Z,978.11
2016-08-22T06:49:21.567Z,978.13
2016-08-22T06:50:21.541Z,978.14
2016-08-22T06:51:21.514Z,978.13
2016-08-22T06:52:21.492Z,978.1
2016-08-22T06:53:21.469Z,978.06
2016-08-22T06:54:21.647Z,978.09
2016-08-22T06:55:21.420Z,978.07
2016-08-22T06:56:21.398Z,978.1
2016-08-22T06:57:21.370Z,978.1
2016-08-22T06:58:21.348Z,978.19
2016-08-22T06:59:21.323Z,978.13
2016-08-22T07:00:21.296Z,978.18
2016-08-22T07:01:21.271Z,978.19
2016-08-22T07:02:21.248Z,978.12
2016-08-22T07:03:21.224Z,978.2
2016-08-22T07:04:21.200Z,978.15
2016-08-22T07:05:21.177Z,978.21
2016-08-22T07:06:21.153Z,978.2
2016-08-22T07:07:21.129Z,978.23
2016-08-22T07:08:21.106Z,978.19
2016-08-22T07:09:21.084Z,978.25
2016-08-22T07:10:21.062Z,978.3
2016-08-22T07:11:21.046Z,978.34
2016-08-22T07:12:21.018Z,978.34
2016-08-22T07:13:20.996Z,978.4
2016-08-22T07:14:20.975Z,978.36
2016-08-22T07:15:20.953Z,978.33
2016-08-22T07:16:20.931Z,978.36
2016-08-22T07:17:20.914Z,978.34
2016-08-22T07:18:20.893Z,978.32
2016-08-22T07:19:20.873Z,978.31
2016-08-22T07:20:20.851Z,978.3
2016-08-22T07:21:20.831Z,978.26
2016-08-22T07:22:20.811Z,978.31
2016-08-22T07:23:20.788Z,978.42
2016-08-22T07:24:20.769Z,978.3
2016-08-22T07:25:20.749Z,978.32
2016-08-22T07:26:20.730Z,978.33
2016-08-22T07:27:20.712Z,978.33
2016-08-22T07:28:20.689Z,978.37
2016-08-22T07:29:20.668Z,978.35
2016-08-22T07:30:20.652Z,978.32
2016-08-22T07:31:20.629Z,978.36
2016-08-22T07:32:20.610Z,978.35
2016-08-22T07:33:20.592Z,978.41
2016-08-22T07:34:20.572Z,978.45
2016-08-22T07:35:20.558Z,978.39
2016-08-22T07:36:20.534Z,978.42
2016-08-22T07:37:20.514Z,978.42
2016-08-22T07:38:20.497Z,978.49
2016-08-22T07:39:20.479Z,978.47
2016-08-22T07:40:20.460Z,978.44
2016-08-22T07:41:20.439Z,978.46
2016-08-22T07:42:20.423Z,978.46
2016-08-22T07:43:20.405Z,978.48
2016-08-22T07:44:20.387Z,978.47
2016-08-22T07:45:20.368Z,978.47
2016-08-22T07:46:20.352Z,978.44
2016-08-22T07:47:20.334Z,978.48
2016-08-22T07:48:20.317Z,978.47
2016-08-22T07:49:20.298Z,978.49
2016-08-22T07:50:20.287Z,978.49
2016-08-22T07:51:20.263Z,978.55
2016-08-22T07:52:20.245Z,978.57
2016-08-22T07:53:20.229Z,978.6
2016-08-22T07:54:20.211Z,978.63
2016-08-22T07:55:20.197Z,978.66
2016-08-22T07:56:20.180Z,978.69
2016-08-22T07:57:20.165Z,978.73
2016-08-22T07:58:20.145Z,978.69
2016-08-22T07:59:20.133Z,978.71
2016-08-22T08:00:20.115Z,978.76
2016-08-22T08:01:20.097Z,978.79
2016-08-22T08:02:20.082Z,978.81
2016-08-22T08:03:20.066Z,978.88
2016-08-22T08:04:20.050Z,978.87
2016-08-22T08:05:20.034Z,978.95
2016-08-22T08:06:20.021Z,979
2016-08-22T08:07:20.002Z,979.01
2016-08-22T08:08:19.988Z,979.07
2016-08-22T08:09:19.971Z,979.04
2016-08-22T08:10:19.956Z,979.1
2016-08-22T08:11:19.944Z,979.08
2016-08-22T08:12:19.928Z,979.1
2016-08-22T08:13:19.913Z,979.11
2016-08-22T08:14:19.898Z,979.16
2016-08-22T08:15:19.881Z,979.21
2016-08-22T08:16:19.866Z,979.19
2016-08-22T08:17:19.852Z,979.22
2016-08-22T08:18:19.839Z,979.29
2016-08-22T08:19:19.825Z,979.35
2016-08-22T08:20:19.809Z,979.38
2016-08-22T08:21:19.794Z,979.41
2016-08-22T08:22:19.778Z,979.14
2016-08-22T08:23:19.766Z,978.67
2016-08-22T08:24:19.749Z,979.5
2016-08-22T08:25:19.735Z,979.49
2016-08-22T08:26:19.721Z,979.65
2016-08-22T08:27:19.710Z,979.62
2016-08-22T08:28:19.692Z,979.62
2016-08-22T08:29:19.679Z,979.68
2016-08-22T08:30:19.665Z,979.7
2016-08-22T08:31:19.650Z,979.71
2016-08-22T08:32:19.635Z,979.79
2016-08-22T08:33:19.622Z,979.81
2016-08-22T08:34:19.609Z,979.78
2016-08-22T08:35:19.595Z,979.81
2016-08-22T08:36:19.585Z,979.81
2016-08-22T08:37:19.568Z,979.9
2016-08-22T08:38:19.554Z,979.14
2016-08-22T08:39:19.538Z,979.01
2016-08-22T08:40:19.526Z,979.55
2016-08-22T08:41:19.512Z,979.91
2016-08-22T08:42:19.498Z,979.88
2016-08-22T08:43:19.495Z,979.86
2016-08-22T08:44:19.468Z,979.9
2016-08-22T08:45:19.456Z,979.86
2016-08-22T08:46:19.441Z,979.83
2016-08-22T08:47:19.428Z,979.87
2016-08-22T08:48:19.413Z,979.82
2016-08-22T08:49:19.398Z,979.87
2016-08-22T08:50:19.385Z,979.86
2016-08-22T08:51:19.371Z,979.87
2016-08-22T08:52:19.362Z,979.86
2016-08-22T08:53:19.344Z,979.87
2016-08-22T08:54:19.327Z,979.85
2016-08-22T08:55:19.316Z,979.89
2016-08-22T08:56:19.303Z,979.86
2016-08-22T08:57:19.291Z,979.85
2016-08-22T08:58:19.292Z,979.85
2016-08-22T08:59:19.265Z,979.87
2016-08-22T09:00:19.252Z,979.9
2016-08-22T09:01:19.240Z,979.95
2016-08-22T09:02:19.226Z,980
2016-08-22T09:03:19.213Z,980.02
2016-08-22T09:04:19.200Z,980.05
2016-08-22T09:05:19.187Z,980.1
2016-08-22T09:06:19.177Z,980.08
2016-08-22T09:07:19.164Z,979.97
2016-08-22T09:08:19.151Z,979.97
2016-08-22T09:09:19.138Z,979.94
2016-08-22T09:10:19.128Z,979.94
2016-08-22T09:11:19.118Z,979.94
2016-08-22T09:12:19.107Z,979.98
2016-08-22T09:13:19.091Z,979.94
2016-08-22T09:14:19.079Z,979.97
2016-08-22T09:15:19.071Z,979.93
2016-08-22T09:16:19.060Z,979.98
2016-08-22T09:17:19.048Z,979.95
2016-08-22T09:18:19.035Z,979.99
2016-08-22T09:19:19.024Z,980.02
2016-08-22T09:20:19.012Z,980.02
2016-08-22T09:21:18.999Z,980.02
2016-08-22T09:22:18.989Z,980.01
2016-08-22T09:23:18.977Z,980.07
2016-08-22T09:24:18.967Z,980.11
2016-08-22T09:25:18.957Z,980.17
2016-08-22T09:26:18.947Z,980.24
2016-08-22T09:27:18.935Z,980.34
2016-08-22T09:28:18.924Z,980.42
2016-08-22T09:29:18.912Z,980.47
2016-08-22T09:30:18.903Z,980.59
2016-08-22T09:31:18.891Z,980.68
2016-08-22T09:32:18.893Z,980.74
2016-08-22T09:33:18.873Z,980.78
2016-08-22T09:34:18.860Z,980.82
2016-08-22T09:35:18.850Z,980.85
2016-08-22T09:36:18.842Z,980.92
2016-08-22T09:37:18.830Z,980.99
2016-08-22T09:38:18.818Z,981.01
2016-08-22T09:39:18.807Z,981.02
2016-08-22T09:40:18.801Z,981.1
2016-08-22T09:41:18.795Z,981.11
2016-08-22T09:42:18.778Z,981.05
2016-08-22T09:43:18.767Z,981.08
2016-08-22T09:44:18.757Z,981.1
2016-08-22T09:45:18.744Z,981.06
2016-08-22T09:46:18.736Z,980.96
2016-08-22T09:47:18.725Z,981.05
2016-08-22T09:48:18.714Z,980.85
2016-08-22T09:49:18.702Z,980.13
2016-08-22T09:50:18.691Z,979.69
2016-08-22T09:51:18.681Z,979.7
2016-08-22T09:52:18.671Z,979.61
2016-08-22T09:53:18.660Z,979.59
2016-08-22T09:54:18.647Z,979.53
2016-08-22T09:55:18.636Z,979.52
2016-08-22T09:56:18.624Z,979.55
2016-08-22T09:57:18.614Z,979.5
2016-08-22T09:58:18.602Z,979.44
2016-08-22T09:59:18.590Z,979.44
2016-08-22T10:00:18.580Z,979.4
2016-08-22T10:01:18.567Z,979.37
2016-08-22T10:02:18.556Z,979.36
2016-08-22T10:03:18.546Z,979.34
2016-08-22T10:04:18.532Z,979.35
2016-08-22T10:05:18.520Z,979.4
2016-08-22T10:06:18.510Z,979.4
2016-08-22T10:07:18.497Z,979.44
2016-08-22T10:08:18.488Z,979.53
2016-08-22T10:09:18.480Z,979.64
2016-08-22T10:10:18.465Z,980.07
2016-08-22T10:11:18.452Z,980.75
2016-08-22T10:12:18.442Z,980.93
2016-08-22T10:13:18.429Z,980.86
2016-08-22T10:14:18.417Z,980.9
2016-08-22T10:15:18.405Z,980.89
2016-08-22T10:16:18.394Z,980.9
2016-08-22T10:17:18.385Z,980.95
2016-08-22T10:18:18.371Z,980.95
2016-08-22T10:19:18.363Z,980.97
2016-08-22T10:20:18.351Z,980.99
2016-08-22T10:21:18.341Z,981.04
2016-08-22T10:22:18.328Z,981.2
2016-08-22T10:23:18.319Z,981.33
2016-08-22T10:24:18.308Z,979.17
2016-08-22T10:25:18.294Z,978.93
2016-08-22T10:26:18.284Z,978.75
2016-08-22T10:27:18.274Z,978.82
2016-08-22T10:28:18.260Z,978.82
2016-08-22T10:29:18.247Z,978.75
2016-08-22T10:30:18.232Z,978.81
2016-08-22T10:31:18.219Z,978.75
2016-08-22T10:32:18.204Z,978.73
2016-08-22T10:33:18.186Z,978.76
2016-08-22T10:34:18.171Z,978.72
2016-08-22T10:35:18.154Z,978.8
2016-08-22T10:36:18.137Z,980.44
2016-08-22T10:37:18.120Z,980.78
2016-08-22T10:38:18.101Z,978.8
2016-08-22T10:39:18.082Z,978.84
2016-08-22T10:40:18.064Z,982.31
2016-08-22T10:41:18.042Z,982.12
2016-08-22T10:42:18.026Z,979.57
2016-08-22T10:43:18.008Z,981.27
2016-08-22T10:44:17.987Z,982.16
2016-08-22T10:45:17.968Z,982.02
2016-08-22T10:46:17.948Z,981.96
2016-08-22T10:47:17.930Z,981.85
2016-08-22T10:48:17.911Z,981.73
2016-08-22T10:49:17.898Z,981.26
2016-08-22T10:50:17.876Z,980.2
2016-08-22T10:51:17.854Z,980.45
2016-08-22T10:52:17.836Z,980.14
2016-08-22T10:53:17.819Z,980
2016-08-22T10:54:17.808Z,979.96
2016-08-22T10:55:17.782Z,979.86
2016-08-22T10:56:17.766Z,979.84
2016-08-22T10:57:17.745Z,979.83
2016-08-22T10:58:17.725Z,978.8
2016-08-22T10:59:17.708Z,978.79
2016-08-22T11:00:17.689Z,978.76
2016-08-22T11:01:17.674Z,978.74
2016-08-22T11:02:17.662Z,978.81
2016-08-22T11:03:17.637Z,978.86
2016-08-22T11:04:17.617Z,978.87
2016-08-22T11:05:17.600Z,979.52
2016-08-22T11:06:17.578Z,979.6
2016-08-22T11:07:17.559Z,979.96
2016-08-22T11:08:17.548Z,978.67
2016-08-22T11:09:17.518Z,978.73
2016-08-22T11:10:17.501Z,978.66
2016-08-22T11:11:17.484Z,978.65
2016-08-22T11:12:17.461Z,978.65
2016-08-22T11:13:17.439Z,979.11
2016-08-22T11:14:17.418Z,979.56
2016-08-22T11:15:17.400Z,979.44
2016-08-22T11:16:17.381Z,978.73
2016-08-22T11:17:17.359Z,978.85
2016-08-22T11:18:17.338Z,979.3
2016-08-22T11:19:17.315Z,979.21
2016-08-22T11:20:17.294Z,979.18
2016-08-22T11:21:17.274Z,979.14
2016-08-22T11:22:17.252Z,979.07
2016-08-22T11:23:17.232Z,979.09
2016-08-22T11:24:17.210Z,978.96
2016-08-22T11:25:17.187Z,978.89
2016-08-22T11:26:17.167Z,978.78
2016-08-22T11:27:17.148Z,978.73
2016-08-22T11:28:17.125Z,978.66
2016-08-22T11:29:17.102Z,978.63
2016-08-22T11:30:17.088Z,978.61
2016-08-22T11:31:17.061Z,978.65
2016-08-22T11:32:17.039Z,978.65
2016-08-22T11:33:17.023Z,978.69
2016-08-22T11:34:16.994Z,978.7
2016-08-22T11:35:16.971Z,978.78
2016-08-22T11:36:16.948Z,978.75
2016-08-22T11:37:16.926Z,978.85
2016-08-22T11:38:16.904Z,978.78
2016-08-22T11:39:16.880Z,978.73
2016-08-22T11:40:16.858Z,978.75
2016-08-22T11:41:16.836Z,978.67
2016-08-22T11:42:16.811Z,978.66
2016-08-22T11:43:16.790Z,978.6
2016-08-22T11:44:16.767Z,978.57
2016-08-22T11:45:16.742Z,978.53
2016-08-22T11:46:16.717Z,978.56
2016-08-22T11:47:16.695Z,978.49
2016-08-22T11:48:16.671Z,978.48
2016-08-22T11:49:16.648Z,978.47
2016-08-22T11:50:16.623Z,978.4
2016-08-22T11:51:16.599Z,978.42
2016-08-22T11:52:16.577Z,978.42
2016-08-22T11:53:16.551Z,978.42
2016-08-22T11:54:16.527Z,978.47
2016-08-22T11:55:16.503Z,978.44
2016-08-22T11:56:16.479Z,978.44
2016-08-22T11:57:16.452Z,978.39
2016-08-22T11:58:16.430Z,978.39
2016-08-22T11:59:16.405Z,978.36
2016-08-22T12:00:16.379Z,978.33
2016-08-22T12:01:16.354Z,978.37
2016-08-22T12:02:16.329Z,978.36
2016-08-22T12:03:16.304Z,978.27
2016-08-22T12:04:16.279Z,978.28
2016-08-22T12:05:16.252Z,978.27
2016-08-22T12:06:16.228Z,978.25
2016-08-22T12:07:16.203Z,978.2
2016-08-22T12:08:16.177Z,978.18
2016-08-22T12:09:16.151Z,978.12
2016-08-22T12:10:16.126Z,978.06
2016-08-22T12:11:16.101Z,978.07
2016-08-22T12:12:16.074Z,978.07
2016-08-22T12:13:16.052Z,978.05
2016-08-22T12:14:16.021Z,978.09
2016-08-22T12:15:15.996Z,978.11
2016-08-22T12:16:15.971Z,978.14
2016-08-22T12:17:15.942Z,978.15
2016-08-22T12:18:15.918Z,978.17
2016-08-22T12:19:15.898Z,978.17
2016-08-22T12:20:15.864Z,978.16
2016-08-22T12:21:15.839Z,978.17
2016-08-22T12:22:15.814Z,978.21
2016-08-22T12:23:15.787Z,978.2
2016-08-22T12:24:15.759Z,978.27
2016-08-22T12:25:15.734Z,978.27
2016-08-22T12:26:15.706Z,978.27
2016-08-22T12:27:15.680Z,978.26
2016-08-22T12:28:15.652Z,978.24
2016-08-22T12:29:15.626Z,978.23
2016-08-22T12:30:15.599Z,978.19
2016-08-22T12:31:15.572Z,978.22